createdAt,value
2023-11-19T00:01:48.760Z,100948.84
2023-11-19T00:06:46.157Z,100949.75
2023-11-19T00:11:42.660Z,100945.59
2023-11-19T00:16:39.303Z,100948.59
2023-11-19T00:21:37.039Z,100938.88
2023-11-19T00:26:34.654Z,100945.19
2023-11-19T00:31:31.696Z,100945.78
2023-11-19T00:36:28.686Z,100954.75
2023-11-19T00:41:26.090Z,100954.53
2023-11-19T00:46:23.490Z,100945.50
2023-11-19T00:51:20.972Z,100943.75
2023-11-19T00:56:17.956Z,100936.72
2023-11-19T01:01:14.620Z,100939.84
2023-11-19T01:06:11.898Z,100935.97
2023-11-19T01:11:08.915Z,100937.97
2023-11-19T01:16:07.544Z,100941.41
2023-11-19T01:21:04.620Z,100947.59
2023-11-19T01:26:02.018Z,100955.31
2023-11-19T01:30:59.693Z,100950.91
2023-11-19T01:35:59.129Z,100958.72
2023-11-19T01:40:57.334Z,100954.97
2023-11-19T01:45:54.696Z,100954.97
2023-11-19T01:51:02.354Z,100947.31
2023-11-19T01:55:59.899Z,100942.78
2023-11-19T02:00:58.051Z,100929.03
2023-11-19T02:05:54.795Z,100942.19
2023-11-19T02:10:52.262Z,100928.91
2023-11-19T02:15:49.243Z,100931.31
2023-11-19T02:20:48.747Z,100941.06
2023-11-19T02:25:55.114Z,100940.31
2023-11-19T02:30:55.567Z,100935.03
2023-11-19T02:35:52.200Z,100932.66
2023-11-19T02:40:49.577Z,100932.56
2023-11-19T02:45:46.524Z,100927.66
2023-11-19T02:50:43.806Z,100913.78
2023-11-19T02:55:41.603Z,100931.50
2023-11-19T03:00:48.258Z,100938.28
2023-11-19T03:05:47.190Z,100942.94
2023-11-19T03:10:44.056Z,100946.63
2023-11-19T03:15:40.836Z,100956.41
2023-11-19T03:20:37.496Z,100954.66
2023-11-19T03:25:34.878Z,100947.56
2023-11-19T03:30:35.368Z,100950.25
2023-11-19T03:35:33.535Z,100941.16
2023-11-19T03:40:30.324Z,100944.50
2023-11-19T03:45:27.698Z,100958.81
2023-11-19T03:50:24.440Z,100975.19
2023-11-19T03:55:21.954Z,100993.31
2023-11-19T04:00:21.500Z,101003.56
2023-11-19T04:05:19.620Z,101008.50
2023-11-19T04:10:17.483Z,101011.91
2023-11-19T04:15:16.301Z,101014.84
2023-11-19T04:20:14.462Z,101014.31
2023-11-19T04:25:12.064Z,101020.69
2023-11-19T04:30:11.472Z,101037.72
2023-11-19T04:35:08.793Z,101042.72
2023-11-19T04:40:06.238Z,101046.72
2023-11-19T04:45:06.301Z,101043.38
2023-11-19T04:50:03.247Z,101044.09
2023-11-19T04:54:59.915Z,101047.13
2023-11-19T04:59:56.459Z,101063.63
2023-11-19T05:04:56.137Z,101081.25
2023-11-19T05:09:52.838Z,101068.34
2023-11-19T05:14:52.711Z,101070.22
2023-11-19T05:19:49.348Z,101072.75
2023-11-19T05:24:46.604Z,101082.13
2023-11-19T05:29:44.229Z,101084.38
2023-11-19T05:34:52.191Z,101091.81
2023-11-19T05:39:50.102Z,101113.88
2023-11-19T05:44:47.181Z,101114.69
2023-11-19T05:49:44.292Z,101125.91
2023-11-19T05:54:40.966Z,101127.47
2023-11-19T05:59:38.428Z,101123.50
2023-11-19T06:04:35.098Z,101113.50
2023-11-19T06:09:34.274Z,101117.03
2023-11-19T06:14:30.842Z,101107.53
2023-11-19T06:19:30.834Z,101107.47
2023-11-19T06:24:28.243Z,101110.09
2023-11-19T06:29:25.318Z,101108.91
2023-11-19T06:34:22.018Z,101093.34
2023-11-19T06:39:21.781Z,101107.19
2023-11-19T06:44:18.472Z,101100.28
2023-11-19T06:49:15.197Z,101122.00
2023-11-19T06:54:11.813Z,101130.94
2023-11-19T06:59:09.960Z,101146.50
2023-11-19T07:04:09.932Z,101139.25
2023-11-19T07:09:10.081Z,101134.66
2023-11-19T07:14:07.204Z,101162.50
2023-11-19T07:19:05.686Z,101168.69
2023-11-19T07:24:03.329Z,101187.16
2023-11-19T07:29:02.222Z,101193.69
2023-11-19T07:33:58.965Z,101195.38
2023-11-19T07:38:57.945Z,101195.97
2023-11-19T07:43:55.104Z,101187.28
2023-11-19T07:48:51.830Z,101197.03
2023-11-19T07:53:48.423Z,101197.22
2023-11-19T07:58:45.775Z,101220.50
2023-11-19T08:03:58.079Z,101226.38
2023-11-19T08:08:55.879Z,101204.66
2023-11-19T08:13:53.335Z,101182.72
2023-11-19T08:18:53.122Z,101195.19
2023-11-19T08:23:53.068Z,101199.63
2023-11-19T08:28:50.013Z,101188.53
2023-11-19T08:33:47.774Z,101193.31
2023-11-19T08:38:44.582Z,101206.28
2023-11-19T08:43:42.309Z,101203.13
2023-11-19T08:48:39.119Z,101197.91
2023-11-19T08:53:36.749Z,101204.84
2023-11-19T08:58:33.532Z,101195.84
2023-11-19T09:03:32.619Z,101186.19
2023-11-19T09:08:29.650Z,101183.66
2023-11-19T09:13:27.007Z,101175.88
2023-11-19T09:18:23.728Z,101162.59
2023-11-19T09:23:20.829Z,101162.81
2023-11-19T09:28:17.607Z,101144.56
2023-11-19T09:33:15.431Z,101157.94
2023-11-19T09:38:13.094Z,101156.13
2023-11-19T09:43:10.436Z,101154.44
2023-11-19T09:48:09.670Z,101147.38
2023-11-19T09:53:07.169Z,101140.09
2023-11-19T09:58:03.958Z,101145.88
2023-11-19T10:03:00.965Z,101143.78
2023-11-19T10:07:57.931Z,101135.22
2023-11-19T10:12:58.543Z,101134.59
2023-11-19T10:17:56.685Z,101129.94
2023-11-19T10:22:53.914Z,101125.97
2023-11-19T10:27:50.988Z,101123.84
2023-11-19T10:33:05.124Z,101117.34
2023-11-19T10:38:02.177Z,101105.81
2023-11-19T10:43:03.114Z,101095.56
2023-11-19T10:48:01.053Z,101104.91
2023-11-19T10:52:59.280Z,101099.03
2023-11-19T10:57:59.460Z,101104.13
2023-11-19T11:03:01.641Z,101106.34
2023-11-19T11:07:59.702Z,101104.53
2023-11-19T11:12:59.012Z,101112.03
2023-11-19T11:17:57.914Z,101080.03
2023-11-19T11:23:14.509Z,101061.97
2023-11-19T11:28:17.802Z,101075.22
2023-11-19T11:33:21.580Z,101081.44
2023-11-19T11:38:22.139Z,101063.47
2023-11-19T11:43:37.506Z,101060.09
2023-11-19T11:48:35.338Z,101059.06
2023-11-19T11:53:36.076Z,101058.56
2023-11-19T11:58:33.621Z,101074.69
2023-11-19T12:03:30.871Z,101061.09
2023-11-19T12:08:31.348Z,101071.19
2023-11-19T12:13:47.708Z,101072.19
2023-11-19T12:18:44.507Z,101051.94
2023-11-19T12:23:49.107Z,101064.31
2023-11-19T12:28:58.284Z,101063.50
2023-11-19T12:33:55.571Z,101064.84
2023-11-19T12:38:55.756Z,101064.59
2023-11-19T12:43:52.573Z,101063.00
2023-11-19T12:48:49.635Z,101055.66
2023-11-19T12:53:52.188Z,101051.00
2023-11-19T12:58:49.939Z,101040.06
2023-11-19T13:03:47.110Z,101048.47
2023-11-19T13:08:45.105Z,101046.84
2023-11-19T13:13:58.653Z,101039.28
2023-11-19T13:18:55.962Z,101053.78
2023-11-19T13:23:55.313Z,101036.91
2023-11-19T13:28:53.414Z,101040.13
2023-11-19T13:33:53.283Z,101039.78
2023-11-19T13:38:50.599Z,101035.88
2023-11-19T13:43:48.032Z,101051.72
2023-11-19T13:48:52.217Z,101052.03
2023-11-19T13:53:52.734Z,101052.72
2023-11-19T13:58:49.520Z,101049.19
2023-11-19T14:03:46.493Z,101037.53
2023-11-19T14:08:46.347Z,101020.69
2023-11-19T14:13:43.712Z,101041.56
2023-11-19T14:18:40.698Z,101054.78
2023-11-19T14:23:37.606Z,101046.22
2023-11-19T14:28:34.367Z,101041.56
2023-11-19T14:33:32.828Z,101048.72
2023-11-19T14:38:29.662Z,101040.16
2023-11-19T14:43:26.785Z,101046.13
2023-11-19T14:48:23.986Z,101065.22
2023-11-19T14:53:21.627Z,101072.06
2023-11-19T14:58:18.416Z,101080.31
2023-11-19T15:03:19.796Z,101084.38
2023-11-19T15:08:16.856Z,101080.28
2023-11-19T15:13:15.740Z,101063.38
2023-11-19T15:18:12.570Z,101064.38
2023-11-19T15:23:10.951Z,101074.66
2023-11-19T15:28:08.067Z,101058.25
2023-11-19T15:33:05.369Z,101041.31
2023-11-19T15:38:02.624Z,101044.81
2023-11-19T15:42:59.650Z,101045.09
2023-11-19T15:47:56.479Z,101046.28
2023-11-19T15:52:56.929Z,101052.44
2023-11-19T15:57:53.650Z,101053.38
2023-11-19T16:02:50.957Z,101055.00
2023-11-19T16:07:50.616Z,101058.00
2023-11-19T16:12:48.166Z,101056.88
2023-11-19T16:17:44.976Z,101044.97
2023-11-19T16:22:43.218Z,101049.16
2023-11-19T16:27:40.283Z,101030.16
2023-11-19T16:32:48.804Z,101036.34
2023-11-19T16:37:45.689Z,101062.41
2023-11-19T16:42:42.494Z,101062.59
2023-11-19T16:47:51.896Z,101066.22
2023-11-19T16:52:48.796Z,101065.41
2023-11-19T16:57:45.589Z,101075.69
2023-11-19T17:07:47.265Z,101070.91
2023-11-19T17:12:44.947Z,101067.59
2023-11-19T17:17:41.750Z,101067.69
2023-11-19T17:22:39.558Z,101046.00
2023-11-19T17:27:38.993Z,101023.16
2023-11-19T17:32:37.080Z,101023.22
2023-11-19T17:37:34.352Z,101022.22
2023-11-19T17:42:31.116Z,100999.69
2023-11-19T17:47:30.067Z,101015.97
2023-11-19T17:52:26.882Z,101015.25
2023-11-19T17:57:25.758Z,100998.09
2023-11-19T18:02:42.966Z,101010.56
2023-11-19T18:07:41.559Z,101018.63
2023-11-19T18:12:39.199Z,101009.16
2023-11-19T18:17:37.799Z,101015.78
2023-11-19T18:22:34.487Z,100987.34
2023-11-19T18:27:32.686Z,101000.41
2023-11-19T18:32:29.572Z,101002.91
2023-11-19T18:37:28.009Z,101009.16
2023-11-19T18:42:24.945Z,101004.91
2023-11-19T18:47:24.885Z,101013.44
2023-11-19T18:52:21.442Z,101006.66
2023-11-19T18:57:18.714Z,101010.97
2023-11-19T19:02:15.599Z,101013.38
2023-11-19T19:07:15.652Z,101018.59
2023-11-19T19:12:12.663Z,101009.97
2023-11-19T19:17:11.420Z,100989.31
2023-11-19T19:22:08.172Z,100984.19
2023-11-19T19:27:05.953Z,100974.94
2023-11-19T19:32:05.689Z,101000.47
2023-11-19T19:37:02.429Z,101007.75
2023-11-19T19:41:59.214Z,101003.19
2023-11-19T19:46:57.796Z,101013.09
2023-11-19T19:51:54.541Z,101006.06
2023-11-19T19:56:53.339Z,101007.69
2023-11-19T20:01:52.004Z,101005.00
2023-11-19T20:06:50.531Z,100994.91
2023-11-19T20:11:48.393Z,100999.19
2023-11-19T20:16:45.061Z,100988.69
2023-11-19T20:21:41.693Z,100971.00
2023-11-19T20:26:40.639Z,100974.72
2023-11-19T20:31:40.533Z,100980.72
2023-11-19T20:36:37.198Z,100964.50
2023-11-19T20:41:33.907Z,100942.34
2023-11-19T20:46:31.281Z,100955.97
2023-11-19T20:51:32.032Z,100949.91
2023-11-19T20:56:29.430Z,100962.13
2023-11-19T21:01:27.255Z,100955.81
2023-11-19T21:06:24.735Z,100971.66
2023-11-19T21:11:21.544Z,100980.38
2023-11-19T21:16:18.104Z,100975.75
2023-11-19T21:21:15.224Z,100991.66
2023-11-19T21:26:14.117Z,100963.13
2023-11-19T21:31:10.774Z,100987.34
2023-11-19T21:36:07.949Z,100981.09
2023-11-19T21:41:05.076Z,100967.63
2023-11-19T21:46:02.424Z,100973.34
2023-11-19T21:51:03.415Z,100972.75
2023-11-19T22:00:59.552Z,100934.53
2023-11-19T22:05:59.379Z,100932.81
2023-11-19T22:10:55.999Z,100940.41
2023-11-19T22:15:54.178Z,100934.69
2023-11-19T22:20:50.983Z,100939.16
2023-11-19T22:25:49.692Z,100944.25
2023-11-19T22:30:46.485Z,100933.75
2023-11-19T22:35:43.596Z,100932.91
2023-11-19T22:40:40.539Z,100932.00
2023-11-19T22:45:37.998Z,100938.94
2023-11-19T22:50:34.754Z,100954.66
2023-11-19T22:55:31.356Z,100945.16
2023-11-19T23:00:31.400Z,100946.25
2023-11-19T23:05:32.807Z,100933.16
2023-11-19T23:10:29.902Z,100928.63
2023-11-19T23:15:26.808Z,100914.78
2023-11-19T23:20:23.794Z,100916.50
2023-11-19T23:25:21.332Z,100902.56
2023-11-19T23:30:22.031Z,100893.34
2023-11-19T23:35:19.911Z,100895.00
2023-11-19T23:40:19.745Z,100893.97
2023-11-19T23:45:17.308Z,100896.81
2023-11-19T23:50:14.082Z,100887.84
2023-11-19T23:55:13.312Z,100900.44
